Puvirnituq - southern half: Past 24 Hour Conditions

 

Resolute Airport

04:00 PM CDT 31 October 2014
This table is a summary of hourly weather conditions for the past 24 hours.
Date / Time
(CDT)
Wind(knots) Conditions Visibility(km) Pressure(kPa) Air tempC) Relative humidity(%) Dew pointC) Wind Chill
31 October 2014
16:00 SE 19 Drifting Snow 24 101.9 -16 83 -18 -28
15:00 SE 19 Drifting Snow 24 101.9 -16 85 -18 -28
14:00 ESE 18 gust 24 Drifting Snow 24 101.9 -17 84 -19 -29
13:00 ESE 17 Mainly Sunny 24 101.9 -17 84 -19 -29
12:00 ESE 18 Drifting Snow 24 101.9 -17 84 -19 -30
11:00 ESE 21 Drifting Snow 24 101.9 -17 84 -19 -30
10:00 SE 14 Mainly Clear 24 101.9 -15 85 -17 -26
9:00 SSE 11 Clear 24 101.9 -17 82 -19 -27
8:00 SE 17 Drifting Snow 24 101.9 -16 85 -18 -28
7:00 ESE 16 Ice Crystals 24 102.0 -17 84 -19 -29
6:00 SE 16 Ice Crystals 24 102.0 -18 83 -20 -30
5:00 SE 15 Ice Crystals 5 102.0 -18 84 -20 -30
4:00 SE 15 Ice Crystals 5 102.0 -18 84 -20 -30
3:00 SE 16 Ice Crystals 1 102.0 -18 84 -20 -29
2:00 SE 17 Ice Crystals 2 102.0 -17 84 -19 -29
1:00 SE 17 Ice Crystals 2 102.0 -17 84 -19 -29
0:00 SE 14 Ice Crystals 5 102.0 -17 84 -19 -28
30 October 2014
23:00 SSE 16 Snow Grains 24 102.0 -17 84 -19 -29
22:00 SSE 11 Snow Grains 24 102.0 -17 84 -19 -27
21:00 S 11 Snow Grains 24 102.1 -17 85 -19 -27
20:00 S 12 Snow Grains 24 102.1 -17 84 -19 -27
19:00 S 11 Snow Grains 19 102.1 -16 85 -18 -26
18:00 S 5 Snow Grains 19 102.1 -16 86 -17 -22
17:00 SW 10 Light Snow 19 102.1 -16 85 -17 -24
16:00 WSW 9 Snow Grains 19 102.1 -15 86 -17 -24
 
Map of Arctic - Eastern Arctic marine weather areas Baker Lake Airport Chesterfield Inlet Airport Coral Harbour Airport Gjoa Haven Airport Kugaaruk Airport Rankin Inlet Airport Shepherd Bay Airport Whale Cove Airport Arctic Bay Brevoort Island Qikiqtarjuaq Airport Cape Dorset Airport Cape Dyer Cape Hooper Clyde Airport Grise Fiord Airport Hall Beach Airport Igloolik Airport Iqaluit Airport Longstaff Bluff Pangnirtung Airport Pond Inlet Airport Repulse Bay Airport Resolute Airport Resolution Island Rowley Island Airport Taloyoak Airport Wager Bay Akulivik Airport Ivujivik Airport Puvirnituq Airport Kangiqsujuaq Airport Kangirsuk Airport Quaqtaq Airport Tasiujaq Airport Cape Kakkiviak Cape Kiglapait Nain Airport Saglek Cape Mercy Kimmirut Airport Aupaluk Airport Salluit Airport Kangiqsualujjuaq Airport Fort Ross
Legend: buoyBuoy land stationLand Station